createdAt,value
2017-07-17T00:01:52.862Z,21.33
2017-07-17T00:04:20.291Z,21.03
2017-07-17T00:06:48.027Z,19.03
2017-07-17T00:09:15.466Z,21.53
2017-07-17T00:11:42.879Z,22.30
2017-07-17T00:14:10.300Z,21.23
2017-07-17T00:16:37.735Z,19.13
2017-07-17T00:19:05.153Z,19.17
2017-07-17T00:21:32.574Z,20.70
2017-07-17T00:24:00.002Z,21.00
2017-07-17T00:26:27.488Z,18.77
2017-07-17T00:28:54.863Z,20.53
2017-07-17T00:31:22.291Z,18.23
2017-07-17T00:33:49.723Z,20.30
2017-07-17T00:36:17.154Z,19.87
2017-07-17T00:38:44.583Z,20.10
2017-07-17T00:41:12.019Z,21.70
2017-07-17T00:43:39.469Z,20.13
2017-07-17T00:46:06.883Z,20.13
2017-07-17T00:48:34.324Z,18.13
2017-07-17T00:51:01.755Z,20.43
2017-07-17T00:53:29.174Z,20.77
2017-07-17T00:55:56.616Z,19.87
2017-07-17T00:58:24.030Z,20.77
2017-07-17T01:00:51.459Z,19.93
2017-07-17T01:03:18.914Z,22.07
2017-07-17T01:05:46.343Z,20.50
2017-07-17T01:08:13.780Z,19.33
2017-07-17T01:10:41.211Z,20.10
2017-07-17T01:13:08.627Z,20.70
2017-07-17T01:15:36.111Z,21.90
2017-07-17T01:18:03.525Z,20.63
2017-07-17T01:20:30.959Z,21.43
2017-07-17T01:22:58.378Z,19.50
2017-07-17T01:25:25.822Z,20.37
2017-07-17T01:27:53.243Z,19.40
2017-07-17T01:30:20.669Z,18.00
2017-07-17T01:32:48.101Z,19.37
2017-07-17T01:35:15.510Z,19.33
2017-07-17T01:37:42.952Z,16.90
2017-07-17T01:40:10.379Z,17.97
2017-07-17T01:42:37.830Z,19.53
2017-07-17T01:45:05.262Z,19.27
2017-07-17T01:47:32.673Z,20.83
2017-07-17T01:50:00.127Z,17.60
2017-07-17T01:52:27.539Z,20.87
2017-07-17T01:54:54.969Z,19.50
2017-07-17T01:57:22.431Z,19.00
2017-07-17T01:59:49.874Z,18.87
2017-07-17T02:02:17.307Z,20.73
2017-07-17T02:04:44.723Z,18.47
2017-07-17T02:07:12.193Z,18.73
2017-07-17T02:09:39.873Z,20.03
2017-07-17T02:12:07.315Z,20.00
2017-07-17T02:14:34.736Z,19.07
2017-07-17T02:17:02.175Z,19.60
2017-07-17T02:19:29.610Z,19.67
2017-07-17T02:21:57.022Z,19.57
2017-07-17T02:24:24.454Z,18.83
2017-07-17T02:26:51.879Z,19.60
2017-07-17T02:29:19.306Z,18.50
2017-07-17T02:31:46.767Z,19.60
2017-07-17T02:34:14.223Z,17.43
2017-07-17T02:36:41.646Z,18.00
2017-07-17T02:39:09.070Z,18.40
2017-07-17T02:41:36.503Z,17.93
2017-07-17T02:44:03.930Z,17.90
2017-07-17T02:46:31.355Z,18.30
2017-07-17T02:48:58.782Z,18.20
2017-07-17T02:51:26.227Z,18.43
2017-07-17T02:53:53.646Z,19.30
2017-07-17T02:56:21.066Z,17.30
2017-07-17T02:58:48.493Z,18.97
2017-07-17T03:01:15.906Z,15.87
2017-07-17T03:03:43.326Z,16.63
2017-07-17T03:06:10.741Z,16.10
2017-07-17T03:08:38.194Z,17.03
2017-07-17T03:11:05.627Z,17.37
2017-07-17T03:13:33.094Z,18.63
2017-07-17T03:16:00.531Z,16.07
2017-07-17T03:18:27.958Z,17.67
2017-07-17T03:20:55.386Z,16.77
2017-07-17T03:23:22.803Z,17.00
2017-07-17T03:25:50.283Z,16.40
2017-07-17T03:28:17.722Z,18.63
2017-07-17T03:30:45.139Z,16.87
2017-07-17T03:33:12.878Z,17.67
2017-07-17T03:35:40.307Z,17.87
2017-07-17T03:38:07.737Z,19.27
2017-07-17T03:40:35.482Z,18.20
2017-07-17T03:43:02.941Z,16.87
2017-07-17T03:45:30.377Z,16.77
2017-07-17T03:47:57.946Z,17.17
2017-07-17T03:50:25.370Z,16.30
2017-07-17T03:52:52.801Z,17.60
2017-07-17T03:55:20.509Z,16.87
2017-07-17T03:57:47.950Z,16.20
2017-07-17T04:00:15.374Z,16.57
2017-07-17T04:02:43.011Z,16.90
2017-07-17T04:05:10.426Z,17.47
2017-07-17T04:07:37.842Z,16.73
2017-07-17T04:10:05.471Z,14.80
2017-07-17T04:12:32.890Z,15.10
2017-07-17T04:15:00.296Z,15.83
2017-07-17T04:17:27.871Z,16.27
2017-07-17T04:19:55.278Z,16.10
2017-07-17T04:22:22.998Z,15.43
2017-07-17T04:24:50.742Z,16.70
2017-07-17T04:27:18.206Z,16.63
2017-07-17T04:29:45.627Z,17.00
2017-07-17T04:32:13.115Z,15.73
2017-07-17T04:34:40.631Z,16.00
2017-07-17T04:37:08.028Z,16.70
2017-07-17T04:39:35.919Z,16.50
2017-07-17T04:42:03.345Z,16.27
2017-07-17T04:44:30.777Z,16.10
2017-07-17T04:46:58.354Z,17.37
2017-07-17T04:49:25.781Z,16.67
2017-07-17T04:51:53.206Z,16.33
2017-07-17T04:54:21.011Z,15.23
2017-07-17T04:56:48.445Z,14.30
2017-07-17T04:59:15.858Z,15.93
2017-07-17T05:01:44.591Z,15.23
2017-07-17T05:04:12.006Z,15.07
2017-07-17T05:06:39.459Z,14.30
2017-07-17T05:09:07.045Z,14.53
2017-07-17T05:11:34.469Z,18.00
2017-07-17T05:14:01.886Z,15.43
2017-07-17T05:16:29.744Z,16.27
2017-07-17T05:18:57.190Z,16.23
2017-07-17T05:21:24.594Z,15.13
2017-07-17T05:23:52.043Z,14.20
2017-07-17T05:26:19.485Z,16.33
2017-07-17T05:28:46.936Z,15.77
2017-07-17T05:31:14.439Z,17.03
2017-07-17T05:33:41.863Z,15.43
2017-07-17T05:36:09.283Z,14.87
2017-07-17T05:38:37.068Z,15.90
2017-07-17T05:41:04.508Z,15.47
2017-07-17T05:43:31.931Z,14.20
2017-07-17T05:45:59.403Z,13.20
2017-07-17T05:48:26.837Z,13.27
2017-07-17T05:50:54.243Z,14.60
2017-07-17T05:53:21.801Z,12.90
2017-07-17T05:55:49.232Z,15.40
2017-07-17T05:58:16.647Z,14.40
2017-07-17T06:00:44.494Z,15.13
2017-07-17T06:03:11.924Z,14.63
2017-07-17T06:05:39.347Z,16.27
2017-07-17T06:08:07.332Z,16.20
2017-07-17T06:10:34.773Z,16.17
2017-07-17T06:13:02.205Z,15.37
2017-07-17T06:15:29.709Z,15.37
2017-07-17T06:17:57.150Z,15.90
2017-07-17T06:20:24.594Z,16.93
2017-07-17T06:22:52.217Z,18.10
2017-07-17T06:25:19.647Z,18.70
2017-07-17T06:27:47.071Z,17.70
2017-07-17T06:30:14.543Z,17.93
2017-07-17T06:32:41.966Z,17.03
2017-07-17T06:35:09.387Z,18.23
2017-07-17T06:37:36.968Z,18.53
2017-07-17T06:40:04.386Z,18.47
2017-07-17T06:42:31.828Z,18.77
2017-07-17T06:44:59.371Z,18.30
2017-07-17T06:47:26.786Z,18.20
2017-07-17T06:49:54.233Z,19.63
2017-07-17T06:52:21.710Z,21.20
2017-07-17T06:54:49.134Z,21.47
2017-07-17T06:57:16.550Z,20.67
2017-07-17T06:59:44.299Z,18.87
2017-07-17T07:02:11.767Z,16.83
2017-07-17T07:04:39.186Z,21.70
2017-07-17T07:07:06.709Z,18.00
2017-07-17T07:09:34.140Z,20.00
2017-07-17T07:12:01.565Z,20.00
2017-07-17T07:14:29.096Z,19.10
2017-07-17T07:16:56.514Z,18.33
2017-07-17T07:19:23.971Z,19.10
2017-07-17T07:21:51.820Z,17.10
2017-07-17T07:24:19.239Z,17.27
2017-07-17T07:26:46.665Z,17.40
2017-07-17T07:29:14.295Z,19.03
2017-07-17T07:31:41.739Z,18.03
2017-07-17T07:34:09.170Z,17.70
2017-07-17T07:36:36.903Z,17.30
2017-07-17T07:39:04.315Z,16.17
2017-07-17T07:41:31.730Z,16.10
2017-07-17T07:43:59.311Z,16.23
2017-07-17T07:46:26.728Z,19.10
2017-07-17T07:48:54.142Z,18.23
2017-07-17T07:51:21.896Z,17.50
2017-07-17T07:53:49.300Z,17.37
2017-07-17T07:56:16.713Z,17.13
2017-07-17T07:58:44.507Z,16.07
2017-07-17T08:01:11.934Z,15.93
2017-07-17T08:03:39.342Z,15.83
2017-07-17T08:06:06.809Z,17.13
2017-07-17T08:08:34.226Z,15.17
2017-07-17T08:11:01.641Z,14.40
2017-07-17T08:13:29.251Z,14.00
2017-07-17T08:15:56.689Z,15.40
2017-07-17T08:18:24.106Z,15.70
2017-07-17T08:20:51.674Z,15.50
2017-07-17T08:23:19.109Z,16.03
2017-07-17T08:25:46.505Z,16.40
2017-07-17T08:28:14.187Z,14.57
2017-07-17T08:30:41.615Z,15.70
2017-07-17T08:33:09.045Z,16.27
2017-07-17T08:35:36.977Z,14.90
2017-07-17T08:38:04.400Z,14.03
2017-07-17T08:40:31.819Z,10.33
2017-07-17T08:42:59.656Z,11.77
2017-07-17T08:45:27.075Z,10.27
2017-07-17T08:47:54.495Z,8.80
2017-07-17T08:50:22.132Z,8.67
2017-07-17T08:52:49.545Z,8.60
2017-07-17T08:55:16.950Z,9.00
2017-07-17T08:57:44.697Z,9.30
2017-07-17T09:00:12.102Z,10.00
2017-07-17T09:02:39.527Z,10.10
2017-07-17T09:05:07.000Z,11.37
2017-07-17T09:07:34.409Z,10.30
2017-07-17T09:10:01.826Z,12.10
2017-07-17T09:12:29.263Z,12.03
2017-07-17T09:14:56.707Z,13.10
2017-07-17T09:17:24.151Z,13.27
2017-07-17T09:19:51.595Z,14.10
2017-07-17T09:22:19.016Z,14.00
2017-07-17T09:24:46.431Z,14.07
2017-07-17T09:27:14.180Z,13.80
2017-07-17T09:29:41.637Z,14.47
2017-07-17T09:32:09.024Z,13.77
2017-07-17T09:34:36.631Z,13.70
2017-07-17T09:37:04.046Z,14.67
2017-07-17T09:39:31.463Z,14.37
2017-07-17T09:41:58.902Z,14.20
2017-07-17T09:44:26.335Z,14.33
2017-07-17T09:46:53.766Z,12.53
2017-07-17T09:49:21.251Z,12.83
2017-07-17T09:51:48.691Z,13.47
2017-07-17T09:54:16.128Z,11.83
2017-07-17T09:56:43.593Z,12.17
2017-07-17T09:59:11.051Z,12.10
2017-07-17T10:01:38.475Z,12.40
2017-07-17T10:04:06.278Z,11.83
2017-07-17T10:06:33.729Z,13.60
2017-07-17T10:09:01.164Z,13.13
2017-07-17T10:11:28.652Z,12.97
2017-07-17T10:13:56.072Z,12.60
2017-07-17T10:16:23.487Z,14.37
2017-07-17T10:18:50.957Z,13.70
2017-07-17T10:21:18.394Z,15.13
2017-07-17T10:23:45.821Z,14.07
2017-07-17T10:26:13.445Z,15.03
2017-07-17T10:28:40.877Z,13.40
2017-07-17T10:31:08.303Z,13.47
2017-07-17T10:33:35.972Z,14.20
2017-07-17T10:36:03.398Z,14.00
2017-07-17T10:38:30.833Z,13.67
2017-07-17T10:40:58.444Z,13.47
2017-07-17T10:43:25.868Z,14.40
2017-07-17T10:45:53.278Z,14.10
2017-07-17T10:48:21.092Z,13.63
2017-07-17T10:50:48.510Z,14.23
2017-07-17T10:53:15.940Z,14.27
2017-07-17T10:55:43.408Z,14.97
2017-07-17T10:58:10.817Z,16.47
2017-07-17T11:00:38.230Z,15.93
2017-07-17T11:03:05.682Z,16.00
2017-07-17T11:05:33.099Z,14.83
2017-07-17T11:08:00.516Z,13.50
2017-07-17T11:10:28.219Z,14.17
2017-07-17T11:12:55.630Z,13.67
2017-07-17T11:15:23.046Z,14.00
2017-07-17T11:17:50.529Z,13.43
2017-07-17T11:20:17.939Z,13.90
2017-07-17T11:22:45.357Z,13.03
2017-07-17T11:25:13.170Z,14.50
2017-07-17T11:27:40.586Z,14.67
2017-07-17T11:30:08.006Z,14.10
2017-07-17T11:32:35.538Z,14.00
2017-07-17T11:35:02.968Z,15.30
2017-07-17T11:37:30.391Z,13.73
2017-07-17T11:39:57.967Z,13.90
2017-07-17T11:42:25.382Z,14.30
2017-07-17T11:44:52.798Z,13.80
2017-07-17T11:59:56.843Z,13.67
2017-07-17T12:02:24.262Z,12.20
2017-07-17T12:07:18.550Z,14.30
2017-07-17T12:09:45.965Z,13.53
2017-07-17T12:12:13.413Z,13.70
2017-07-17T12:14:40.830Z,12.43
2017-07-17T12:17:08.246Z,12.23
2017-07-17T12:19:35.819Z,11.80
2017-07-17T12:22:03.245Z,11.40
2017-07-17T12:24:30.659Z,11.40
2017-07-17T12:26:58.090Z,10.80
2017-07-17T12:29:25.514Z,12.37
2017-07-17T12:31:52.942Z,11.90
2017-07-17T12:34:20.478Z,11.40
2017-07-17T12:36:47.899Z,12.33
2017-07-17T12:39:15.324Z,12.50
2017-07-17T12:41:42.978Z,13.17
2017-07-17T12:44:10.405Z,13.77
2017-07-17T12:46:37.819Z,13.43
2017-07-17T12:49:05.258Z,12.53
2017-07-17T12:51:32.679Z,12.30
2017-07-17T12:54:00.107Z,12.80
2017-07-17T12:56:27.698Z,12.03
2017-07-17T12:58:55.121Z,10.80
2017-07-17T13:01:22.544Z,12.10
2017-07-17T13:03:50.119Z,11.17
2017-07-17T13:06:17.552Z,10.60
2017-07-17T13:08:44.974Z,9.27
2017-07-17T13:11:12.464Z,11.40
2017-07-17T13:13:39.879Z,12.60
2017-07-17T13:16:07.303Z,12.13
2017-07-17T13:18:34.897Z,13.57
2017-07-17T13:21:02.325Z,14.47
2017-07-17T13:23:29.756Z,11.90
2017-07-17T13:25:57.191Z,12.50
2017-07-17T13:28:24.617Z,13.23
2017-07-17T13:30:52.046Z,14.43
2017-07-17T13:33:19.485Z,14.00
2017-07-17T13:35:46.918Z,14.30
2017-07-17T13:38:14.340Z,15.93
2017-07-17T13:40:41.952Z,15.27
2017-07-17T13:43:09.383Z,15.30
2017-07-17T13:45:36.832Z,14.27
2017-07-17T13:48:04.359Z,21.40
2017-07-17T13:50:31.770Z,15.63
2017-07-17T13:53:02.447Z,15.87
2017-07-17T13:55:30.002Z,15.47
2017-07-17T13:57:57.440Z,16.67
2017-07-17T14:00:24.884Z,14.47
2017-07-17T14:02:52.646Z,15.37
2017-07-17T14:05:20.083Z,16.37
2017-07-17T14:07:47.542Z,15.30
2017-07-17T14:10:14.999Z,14.77
2017-07-17T14:12:42.435Z,14.53
2017-07-17T14:15:09.856Z,15.07
2017-07-17T14:17:37.436Z,17.17
2017-07-17T14:20:04.856Z,14.90
2017-07-17T14:22:32.276Z,16.67
2017-07-17T14:24:59.851Z,17.00
2017-07-17T14:27:27.271Z,14.80
2017-07-17T14:29:54.687Z,14.80
2017-07-17T14:32:22.241Z,16.77
2017-07-17T14:34:49.661Z,14.17
2017-07-17T14:37:17.115Z,14.53
2017-07-17T14:39:44.723Z,15.00
2017-07-17T14:42:12.151Z,15.93
2017-07-17T14:44:39.567Z,14.83
2017-07-17T14:47:07.051Z,14.70
2017-07-17T14:49:34.475Z,16.73
2017-07-17T14:52:01.900Z,17.17
2017-07-17T14:54:29.361Z,16.60
2017-07-17T14:56:56.784Z,18.60
2017-07-17T14:59:24.202Z,18.00
2017-07-17T15:01:51.768Z,17.73
2017-07-17T15:04:19.199Z,15.83
2017-07-17T15:06:46.620Z,17.67
2017-07-17T15:09:14.057Z,15.20
2017-07-17T15:11:41.535Z,15.83
2017-07-17T15:14:09.060Z,14.60
2017-07-17T15:16:37.026Z,12.47
2017-07-17T15:19:04.455Z,13.77
2017-07-17T15:21:31.886Z,13.10
2017-07-17T15:23:59.493Z,13.10
2017-07-17T15:26:26.901Z,11.30
2017-07-17T15:28:54.354Z,11.30
2017-07-17T15:31:21.802Z,11.93
2017-07-17T15:33:49.293Z,10.83
2017-07-17T15:36:16.746Z,11.20
2017-07-17T15:38:44.327Z,12.13
2017-07-17T15:41:11.739Z,13.07
2017-07-17T15:43:39.189Z,11.73
2017-07-17T15:46:06.982Z,11.73
2017-07-17T15:48:35.014Z,13.97
2017-07-17T15:51:02.431Z,13.93
2017-07-17T15:53:29.934Z,13.80
2017-07-17T15:55:57.375Z,13.47
2017-07-17T15:58:24.871Z,13.63
2017-07-17T16:00:52.351Z,12.97
2017-07-17T16:03:19.758Z,14.20
2017-07-17T16:05:47.182Z,12.20
2017-07-17T16:08:14.631Z,12.13
2017-07-17T16:10:42.047Z,12.50
2017-07-17T16:13:09.459Z,12.60
2017-07-17T16:15:36.899Z,12.23
2017-07-17T16:18:04.340Z,12.60
2017-07-17T16:20:31.751Z,12.57
2017-07-17T16:22:59.506Z,11.10
2017-07-17T16:25:26.920Z,11.70
2017-07-17T16:27:54.334Z,12.10
2017-07-17T16:30:22.145Z,11.77
2017-07-17T16:32:49.560Z,11.73
2017-07-17T16:35:16.975Z,12.83
2017-07-17T16:37:44.736Z,11.77
2017-07-17T16:40:12.155Z,11.30
2017-07-17T16:42:39.567Z,10.80
2017-07-17T16:45:07.107Z,11.33
2017-07-17T16:47:34.524Z,10.43
2017-07-17T16:50:01.939Z,10.70
2017-07-17T16:52:29.511Z,10.90
2017-07-17T16:54:56.921Z,10.30
2017-07-17T16:57:24.334Z,10.23
2017-07-17T16:59:51.798Z,10.73
2017-07-17T17:02:19.216Z,10.33
2017-07-17T17:04:46.622Z,9.60
2017-07-17T17:07:14.375Z,8.83
2017-07-17T17:09:41.776Z,9.20
2017-07-17T17:12:09.187Z,9.00
2017-07-17T17:14:36.623Z,9.63
2017-07-17T17:17:04.029Z,8.23
2017-07-17T17:19:31.451Z,9.70
2017-07-17T17:21:59.014Z,8.70
2017-07-17T17:24:26.427Z,8.93
2017-07-17T17:26:53.830Z,9.40
2017-07-17T17:29:21.270Z,9.53
2017-07-17T17:31:48.679Z,10.50
2017-07-17T17:34:16.099Z,10.97
2017-07-17T17:36:43.523Z,11.20
2017-07-17T17:39:10.947Z,10.50
2017-07-17T17:41:38.386Z,11.23
2017-07-17T17:44:05.815Z,10.50
2017-07-17T17:46:33.230Z,10.70
2017-07-17T17:49:00.648Z,11.17
2017-07-17T17:51:28.346Z,11.43
2017-07-17T17:53:55.763Z,10.57
2017-07-17T17:56:23.179Z,10.97
2017-07-17T17:58:50.706Z,11.40
2017-07-17T18:01:18.127Z,10.63
2017-07-17T18:03:45.541Z,11.07
2017-07-17T18:06:12.994Z,10.27
2017-07-17T18:08:40.430Z,10.93
2017-07-17T18:11:07.876Z,10.97
2017-07-17T18:13:35.314Z,10.27
2017-07-17T18:16:02.779Z,10.47
2017-07-17T18:18:30.183Z,9.43
2017-07-17T18:20:57.625Z,10.30
2017-07-17T18:23:25.033Z,8.90
2017-07-17T18:25:52.447Z,10.27
2017-07-17T18:28:19.923Z,11.23
2017-07-17T18:30:47.335Z,10.90
2017-07-17T18:33:14.746Z,10.20
2017-07-17T18:35:42.311Z,9.87
2017-07-17T18:38:09.723Z,9.83
2017-07-17T18:40:37.159Z,9.93
2017-07-17T18:43:04.727Z,9.23
2017-07-17T18:45:32.138Z,9.10
2017-07-17T18:47:59.555Z,9.13
2017-07-17T18:50:27.047Z,9.53
2017-07-17T18:52:54.454Z,9.90
2017-07-17T18:55:21.858Z,8.87
2017-07-17T18:57:49.426Z,9.63
2017-07-17T19:00:16.827Z,8.83
2017-07-17T19:02:44.234Z,9.43
2017-07-17T19:05:11.667Z,9.30
2017-07-17T19:07:39.088Z,9.13
2017-07-17T19:10:06.495Z,9.30
2017-07-17T19:12:34.167Z,8.93
2017-07-17T19:15:01.587Z,9.27
2017-07-17T19:17:29.015Z,9.60
2017-07-17T19:19:56.467Z,9.17
2017-07-17T19:22:23.899Z,9.17
2017-07-17T19:24:52.190Z,9.50
2017-07-17T19:27:19.743Z,8.63
2017-07-17T19:29:47.179Z,8.87
2017-07-17T19:32:14.592Z,8.30
2017-07-17T19:34:42.175Z,8.70
2017-07-17T19:37:09.587Z,9.30
2017-07-17T19:39:37.044Z,10.20
2017-07-17T19:42:04.783Z,9.97
2017-07-17T19:44:32.193Z,9.67
2017-07-17T19:46:59.614Z,9.40
2017-07-17T19:49:27.080Z,10.00
2017-07-17T19:51:54.487Z,10.67
2017-07-17T19:54:21.940Z,11.37
2017-07-17T19:56:49.423Z,11.23
2017-07-17T19:59:16.846Z,10.47
2017-07-17T20:01:44.292Z,9.77
2017-07-17T20:04:11.889Z,10.40
2017-07-17T20:06:39.296Z,9.73
2017-07-17T20:09:07.667Z,9.57
2017-07-17T20:11:35.313Z,9.80
2017-07-17T20:14:02.715Z,9.50
2017-07-17T20:16:30.161Z,10.37
2017-07-17T20:18:57.697Z,10.13
2017-07-17T20:21:25.131Z,10.07
2017-07-17T20:23:52.554Z,10.00
2017-07-17T20:26:20.040Z,9.53
2017-07-17T20:28:47.488Z,9.60
2017-07-17T20:31:14.910Z,10.00
2017-07-17T20:33:42.500Z,9.97
2017-07-17T20:36:09.906Z,10.20
2017-07-17T20:38:37.323Z,10.03
2017-07-17T20:41:04.906Z,10.10
2017-07-17T20:43:32.323Z,8.97
2017-07-17T20:45:59.734Z,9.37
2017-07-17T20:48:27.256Z,9.90
2017-07-17T20:50:54.667Z,10.10
2017-07-17T20:53:22.073Z,9.07
2017-07-17T20:55:49.538Z,9.80
2017-07-17T20:58:16.948Z,9.03
2017-07-17T21:00:44.346Z,9.60
2017-07-17T21:03:11.810Z,10.10
2017-07-17T21:05:39.272Z,10.53
2017-07-17T21:08:06.692Z,10.00
2017-07-17T21:10:34.266Z,9.30
2017-07-17T21:13:01.688Z,10.97
2017-07-17T21:15:29.116Z,10.50
2017-07-17T21:17:56.727Z,10.20
2017-07-17T21:20:24.140Z,10.23
2017-07-17T21:22:51.564Z,9.60
2017-07-17T21:25:19.113Z,9.80
2017-07-17T21:27:46.526Z,10.30
2017-07-17T21:30:13.946Z,9.50
2017-07-17T21:32:41.468Z,9.90
2017-07-17T21:35:08.894Z,10.60
2017-07-17T21:37:36.323Z,10.00
2017-07-17T21:40:03.843Z,10.40
2017-07-17T21:42:31.260Z,9.80
2017-07-17T21:44:58.670Z,9.43
2017-07-17T21:47:26.310Z,10.50
2017-07-17T21:49:53.717Z,9.40
2017-07-17T21:52:21.135Z,9.63
2017-07-17T21:54:48.594Z,9.90
2017-07-17T21:57:16.011Z,10.30
2017-07-17T21:59:43.425Z,11.07
2017-07-17T22:02:11.054Z,9.57
2017-07-17T22:04:38.479Z,11.00
2017-07-17T22:07:05.907Z,10.70
2017-07-17T22:09:33.593Z,10.37
2017-07-17T22:12:01.012Z,11.13
2017-07-17T22:14:28.428Z,10.10
2017-07-17T22:16:55.866Z,10.17
2017-07-17T22:19:23.294Z,10.93
2017-07-17T22:21:50.705Z,10.63
2017-07-17T22:24:18.587Z,11.03
2017-07-17T22:26:46.022Z,11.23
2017-07-17T22:29:13.429Z,10.73
2017-07-17T22:31:40.962Z,10.90
2017-07-17T22:34:08.374Z,9.90
2017-07-17T22:36:35.797Z,10.97
2017-07-17T22:39:03.372Z,10.60
2017-07-17T22:41:30.782Z,10.33
2017-07-17T22:43:58.194Z,11.23
2017-07-17T22:46:25.772Z,10.63
2017-07-17T22:48:53.178Z,10.83
2017-07-17T22:51:20.601Z,10.60
2017-07-17T22:53:48.043Z,10.50
2017-07-17T22:56:15.488Z,10.50
2017-07-17T22:58:42.906Z,10.50
2017-07-17T23:01:10.394Z,10.50
2017-07-17T23:03:37.816Z,9.80
2017-07-17T23:06:05.227Z,10.13
2017-07-17T23:08:33.018Z,10.40
2017-07-17T23:11:00.422Z,9.90
2017-07-17T23:13:27.834Z,10.70
2017-07-17T23:15:55.274Z,10.83
2017-07-17T23:18:22.706Z,11.27
2017-07-17T23:20:51.498Z,10.67
2017-07-17T23:23:19.253Z,10.60
2017-07-17T23:25:46.674Z,10.47
2017-07-17T23:28:14.092Z,11.07
2017-07-17T23:30:41.532Z,10.40
2017-07-17T23:33:08.951Z,11.07
2017-07-17T23:35:36.363Z,11.30
2017-07-17T23:38:04.139Z,9.70
2017-07-17T23:40:31.571Z,18.03
2017-07-17T23:42:58.978Z,9.57
2017-07-17T23:45:26.410Z,10.30
2017-07-17T23:47:53.843Z,10.47
2017-07-17T23:50:21.304Z,10.13
2017-07-17T23:52:48.753Z,10.20
2017-07-17T23:55:16.166Z,10.23
2017-07-17T23:57:43.581Z,10.67
